createdAt,value
2019-02-18T00:00:42.033Z,81.97
2019-02-18T00:03:15.317Z,81.77
2019-02-18T00:05:48.619Z,81.86
2019-02-18T00:08:21.889Z,81.98
2019-02-18T00:10:55.191Z,82.35
2019-02-18T00:13:28.470Z,82.42
2019-02-18T00:16:02.263Z,82.46
2019-02-18T00:18:35.536Z,82.52
2019-02-18T00:21:08.837Z,82.52
2019-02-18T00:23:42.118Z,82.52
2019-02-18T00:26:15.426Z,83.08
2019-02-18T00:28:48.713Z,83.08
2019-02-18T00:31:21.989Z,82.61
2019-02-18T00:33:55.279Z,82.50
2019-02-18T00:36:28.583Z,82.41
2019-02-18T00:39:01.877Z,82.21
2019-02-18T00:41:35.167Z,82.64
2019-02-18T00:44:08.447Z,82.05
2019-02-18T00:46:41.737Z,82.31
2019-02-18T00:49:15.024Z,82.57
2019-02-18T00:51:48.326Z,82.58
2019-02-18T00:54:21.609Z,82.43
2019-02-18T00:56:54.901Z,82.52
2019-02-18T00:59:28.246Z,81.89
2019-02-18T01:02:01.564Z,81.75
2019-02-18T01:04:34.830Z,81.74
2019-02-18T01:07:08.122Z,81.62
2019-02-18T01:09:41.403Z,82.00
2019-02-18T01:12:14.689Z,82.55
2019-02-18T01:14:47.970Z,82.54
2019-02-18T01:17:21.262Z,82.74
2019-02-18T01:19:54.362Z,83.19
2019-02-18T01:22:27.665Z,82.78
2019-02-18T01:25:00.961Z,83.01
2019-02-18T01:27:34.279Z,83.00
2019-02-18T01:30:10.795Z,82.99
2019-02-18T01:32:44.163Z,83.22
2019-02-18T01:35:17.453Z,83.11
2019-02-18T01:37:50.753Z,83.18
2019-02-18T01:40:24.033Z,83.19
2019-02-18T01:42:58.364Z,83.15
2019-02-18T01:45:32.088Z,82.74
2019-02-18T01:48:05.463Z,83.04
2019-02-18T01:50:38.754Z,83.22
2019-02-18T01:53:12.049Z,83.62
2019-02-18T01:55:45.332Z,83.67
2019-02-18T01:58:19.101Z,83.40
2019-02-18T02:00:52.393Z,83.29
2019-02-18T02:03:25.722Z,83.32
2019-02-18T02:05:59.006Z,82.90
2019-02-18T02:08:32.311Z,83.19
2019-02-18T02:11:05.660Z,83.67
2019-02-18T02:13:38.952Z,84.19
2019-02-18T02:16:12.250Z,85.26
2019-02-18T02:18:45.534Z,85.14
2019-02-18T02:21:18.861Z,85.02
2019-02-18T02:23:52.133Z,84.25
2019-02-18T02:26:25.431Z,83.75
2019-02-18T02:28:58.726Z,83.75
2019-02-18T02:31:32.015Z,83.64
2019-02-18T02:34:05.309Z,83.94
2019-02-18T02:36:38.594Z,83.41
2019-02-18T02:39:11.880Z,83.59
2019-02-18T02:41:45.175Z,84.63
2019-02-18T02:44:18.464Z,83.96
2019-02-18T02:46:51.763Z,83.63
2019-02-18T02:49:25.034Z,84.27
2019-02-18T02:51:58.331Z,84.59
2019-02-18T02:54:31.604Z,84.51
2019-02-18T02:57:04.925Z,84.95
2019-02-18T02:59:38.205Z,85.68
2019-02-18T03:02:11.482Z,86.09
2019-02-18T03:04:44.771Z,85.42
2019-02-18T03:07:18.056Z,85.66
2019-02-18T03:09:51.342Z,85.48
2019-02-18T03:12:24.638Z,85.64
2019-02-18T03:14:57.915Z,85.57
2019-02-18T03:17:31.210Z,85.87
2019-02-18T03:20:06.944Z,85.01
2019-02-18T03:22:40.250Z,84.41
2019-02-18T03:25:21.643Z,83.95
2019-02-18T03:28:17.595Z,83.87
2019-02-18T03:31:02.882Z,83.96
2019-02-18T03:33:51.417Z,84.41
2019-02-18T03:36:24.693Z,84.64
2019-02-18T03:38:57.971Z,84.64
2019-02-18T03:41:31.428Z,84.79
2019-02-18T03:44:04.698Z,86.23
2019-02-18T03:46:37.980Z,85.56
2019-02-18T03:49:11.264Z,84.26
2019-02-18T03:51:44.548Z,84.52
2019-02-18T03:54:17.919Z,84.86
2019-02-18T03:56:51.277Z,84.63
2019-02-18T03:59:25.495Z,84.56
2019-02-18T04:01:58.748Z,84.99
2019-02-18T04:04:32.065Z,85.29
2019-02-18T04:07:05.339Z,85.71
2019-02-18T04:09:38.654Z,85.71
2019-02-18T04:12:11.934Z,85.89
2019-02-18T04:14:45.220Z,86.06
2019-02-18T04:17:18.508Z,86.12
2019-02-18T04:19:52.377Z,85.13
2019-02-18T04:22:25.877Z,85.31
2019-02-18T04:24:59.163Z,84.66
2019-02-18T04:27:32.443Z,84.67
2019-02-18T04:30:13.555Z,84.59
2019-02-18T04:32:45.994Z,85.16
2019-02-18T04:35:19.281Z,85.66
2019-02-18T04:37:53.031Z,85.45
2019-02-18T04:40:26.341Z,85.33
2019-02-18T04:42:59.626Z,85.18
2019-02-18T04:45:32.919Z,85.33
2019-02-18T04:48:06.201Z,85.93
2019-02-18T04:50:39.502Z,85.12
2019-02-18T04:53:12.788Z,84.81
2019-02-18T04:55:46.760Z,85.34
2019-02-18T04:58:20.033Z,85.67
2019-02-18T05:00:53.334Z,85.89
2019-02-18T05:03:26.608Z,86.17
2019-02-18T05:05:59.918Z,86.87
2019-02-18T05:08:33.187Z,86.18
2019-02-18T05:11:06.544Z,87.21
2019-02-18T05:13:39.844Z,86.18
2019-02-18T05:16:13.120Z,86.06
2019-02-18T05:18:46.440Z,86.24
2019-02-18T05:21:19.744Z,86.41
2019-02-18T05:23:53.040Z,86.44
2019-02-18T05:26:27.108Z,87.04
2019-02-18T05:29:00.391Z,86.36
2019-02-18T05:31:33.806Z,85.86
2019-02-18T05:34:07.087Z,86.76
2019-02-18T05:36:40.388Z,85.87
2019-02-18T05:39:17.959Z,85.63
2019-02-18T05:41:48.711Z,85.65
2019-02-18T05:44:21.976Z,85.95
2019-02-18T05:46:55.297Z,85.98
2019-02-18T05:49:28.587Z,86.00
2019-02-18T05:52:01.973Z,84.88
2019-02-18T05:54:35.254Z,83.81
2019-02-18T05:57:08.553Z,83.56
2019-02-18T05:59:41.832Z,83.49
2019-02-18T06:02:14.956Z,83.75
2019-02-18T06:04:48.235Z,83.77
2019-02-18T06:07:21.539Z,85.06
2019-02-18T06:09:54.850Z,85.86
2019-02-18T06:12:28.176Z,85.40
2019-02-18T06:15:01.468Z,86.76
2019-02-18T06:17:34.838Z,86.83
2019-02-18T06:20:09.250Z,86.46
2019-02-18T06:22:42.569Z,86.31
2019-02-18T06:25:16.511Z,85.70
2019-02-18T06:27:51.586Z,86.99
2019-02-18T06:30:24.978Z,86.86
2019-02-18T06:33:01.016Z,86.62
2019-02-18T06:35:33.338Z,86.35
2019-02-18T06:38:07.841Z,85.96
2019-02-18T06:40:41.164Z,85.27
2019-02-18T06:43:14.461Z,85.43
2019-02-18T06:45:49.363Z,85.05
2019-02-18T06:48:29.786Z,85.48
2019-02-18T06:51:03.089Z,86.18
2019-02-18T06:53:36.395Z,86.29
2019-02-18T06:56:09.671Z,87.00
2019-02-18T06:58:44.617Z,86.40
2019-02-18T07:01:19.551Z,85.38
2019-02-18T07:03:57.475Z,84.46
2019-02-18T07:06:41.340Z,83.99
2019-02-18T07:09:24.945Z,83.98
2019-02-18T07:11:59.883Z,83.76
2019-02-18T07:14:33.149Z,84.39
2019-02-18T07:17:06.477Z,84.62
2019-02-18T07:19:39.779Z,83.49
2019-02-18T07:22:14.197Z,83.55
2019-02-18T07:24:47.573Z,83.27
2019-02-18T07:27:20.869Z,82.78
2019-02-18T07:29:54.187Z,83.15
2019-02-18T07:32:27.472Z,82.97
2019-02-18T07:35:02.418Z,82.35
2019-02-18T07:37:35.767Z,81.95
2019-02-18T07:40:09.846Z,81.27
2019-02-18T07:42:43.147Z,81.72
2019-02-18T07:45:16.469Z,81.86
2019-02-18T07:47:49.735Z,82.04
2019-02-18T07:50:23.698Z,81.98
2019-02-18T07:52:56.992Z,81.59
2019-02-18T07:55:30.336Z,81.64
2019-02-18T07:58:03.640Z,81.90
2019-02-18T08:00:36.949Z,81.25
2019-02-18T08:03:10.245Z,80.87
2019-02-18T08:05:43.525Z,80.50
2019-02-18T08:08:16.828Z,81.04
2019-02-18T08:10:51.350Z,79.85
2019-02-18T08:13:26.723Z,79.16
2019-02-18T08:15:59.675Z,79.46
2019-02-18T08:18:32.970Z,78.89
2019-02-18T08:21:06.323Z,78.68
2019-02-18T08:23:39.626Z,78.72
2019-02-18T08:26:12.898Z,78.73
2019-02-18T08:28:46.270Z,78.90
2019-02-18T08:31:19.555Z,78.09
2019-02-18T08:33:52.842Z,77.08
2019-02-18T08:36:26.122Z,76.21
2019-02-18T08:38:59.452Z,75.55
2019-02-18T08:41:32.725Z,75.62
2019-02-18T08:44:06.024Z,75.39
2019-02-18T08:46:39.343Z,76.75
2019-02-18T08:49:12.639Z,76.83
2019-02-18T08:51:45.937Z,76.49
2019-02-18T08:54:19.237Z,75.09
2019-02-18T08:56:52.517Z,74.16
2019-02-18T08:59:25.821Z,73.67
2019-02-18T09:01:59.115Z,72.47
2019-02-18T09:04:32.404Z,71.67
2019-02-18T09:07:05.706Z,72.39
2019-02-18T09:09:38.997Z,71.91
2019-02-18T09:12:12.317Z,70.68
2019-02-18T09:14:45.606Z,69.78
2019-02-18T09:17:18.892Z,69.48
2019-02-18T09:19:52.206Z,69.67
2019-02-18T09:22:36.089Z,68.66
2019-02-18T09:25:11.047Z,67.22
2019-02-18T09:27:44.326Z,65.62
2019-02-18T09:30:19.288Z,64.81
2019-02-18T09:32:52.566Z,63.95
2019-02-18T09:35:26.018Z,63.20
2019-02-18T09:37:59.290Z,63.21
2019-02-18T09:40:32.595Z,61.68
2019-02-18T09:43:05.941Z,61.42
2019-02-18T09:45:39.314Z,61.04
2019-02-18T09:48:13.157Z,60.68
2019-02-18T09:50:46.534Z,59.76
2019-02-18T09:53:19.813Z,58.10
2019-02-18T09:55:53.129Z,57.56
2019-02-18T09:58:26.406Z,57.06
2019-02-18T10:00:59.702Z,55.37
2019-02-18T10:03:32.979Z,56.16
2019-02-18T10:06:06.306Z,54.99
2019-02-18T10:08:39.580Z,54.20
2019-02-18T10:11:12.926Z,53.94
2019-02-18T10:13:46.203Z,52.20
2019-02-18T10:16:19.500Z,50.83
2019-02-18T10:18:52.762Z,51.09
2019-02-18T10:21:26.053Z,48.78
2019-02-18T10:23:59.349Z,48.43
2019-02-18T10:26:32.638Z,47.59
2019-02-18T10:29:05.991Z,46.72
2019-02-18T10:31:39.297Z,47.17
2019-02-18T10:34:12.583Z,45.94
2019-02-18T10:36:45.931Z,45.93
2019-02-18T10:39:19.217Z,46.62
2019-02-18T10:41:52.582Z,46.35
2019-02-18T10:44:25.872Z,45.97
2019-02-18T10:46:59.166Z,45.34
2019-02-18T10:49:32.474Z,45.04
2019-02-18T10:52:05.747Z,45.74
2019-02-18T10:54:39.061Z,44.88
2019-02-18T10:57:12.601Z,44.68
2019-02-18T10:59:45.911Z,45.54
2019-02-18T11:02:19.479Z,44.45
2019-02-18T11:04:52.765Z,44.97
2019-02-18T11:07:26.066Z,44.08
2019-02-18T11:09:59.362Z,43.51
2019-02-18T11:12:32.652Z,39.81
2019-02-18T11:15:07.894Z,36.54
2019-02-18T11:17:41.240Z,36.33
2019-02-18T11:20:14.717Z,36.06
2019-02-18T11:22:48.810Z,35.61
2019-02-18T11:25:22.100Z,34.38
2019-02-18T11:27:55.398Z,33.71
2019-02-18T11:30:28.749Z,34.24
2019-02-18T11:33:02.048Z,33.58
2019-02-18T11:35:35.361Z,34.57
2019-02-18T11:38:08.640Z,32.83
2019-02-18T11:40:42.106Z,32.00
2019-02-18T11:43:15.382Z,32.20
2019-02-18T11:45:48.691Z,32.55
2019-02-18T11:48:21.984Z,34.59
2019-02-18T11:50:55.769Z,34.21
2019-02-18T11:53:29.042Z,32.95
2019-02-18T11:56:02.354Z,29.86
2019-02-18T11:58:38.788Z,32.19
2019-02-18T12:01:12.448Z,32.63
2019-02-18T12:03:47.294Z,31.58
2019-02-18T12:06:20.595Z,30.72
2019-02-18T12:08:54.420Z,31.44
2019-02-18T12:11:37.891Z,31.73
2019-02-18T12:14:03.810Z,31.12
2019-02-18T12:16:37.135Z,31.53
2019-02-18T12:19:10.417Z,30.76
2019-02-18T12:21:43.789Z,29.46
2019-02-18T12:24:17.504Z,30.09
2019-02-18T12:26:50.801Z,30.92
2019-02-18T12:29:26.438Z,29.64
2019-02-18T12:31:59.114Z,29.78
2019-02-18T12:34:32.393Z,29.27
2019-02-18T12:37:05.777Z,27.90
2019-02-18T12:39:39.077Z,30.46
2019-02-18T12:42:12.374Z,29.41
2019-02-18T12:44:45.685Z,30.94
2019-02-18T12:47:19.833Z,29.14
2019-02-18T12:49:53.112Z,27.94
2019-02-18T12:52:26.479Z,30.28
2019-02-18T12:55:00.501Z,30.30
2019-02-18T12:57:34.125Z,30.04
2019-02-18T13:00:13.701Z,29.98
2019-02-18T13:02:47.125Z,30.60
2019-02-18T13:05:20.428Z,30.09
2019-02-18T13:07:53.749Z,30.50
2019-02-18T13:10:34.587Z,29.69
2019-02-18T13:13:02.527Z,29.90
2019-02-18T13:15:35.884Z,29.61
2019-02-18T13:18:09.250Z,29.24
2019-02-18T13:20:42.547Z,28.42
2019-02-18T13:23:16.114Z,27.86
2019-02-18T13:25:49.393Z,30.20
2019-02-18T13:28:22.725Z,27.52
2019-02-18T13:30:56.004Z,26.45
2019-02-18T13:33:29.306Z,28.83
2019-02-18T13:36:02.561Z,27.86
2019-02-18T13:38:35.878Z,27.58
2019-02-18T13:41:09.236Z,28.08
2019-02-18T13:43:44.092Z,28.30
2019-02-18T13:46:17.838Z,27.74
2019-02-18T13:48:51.152Z,27.67
2019-02-18T13:51:24.647Z,28.01
2019-02-18T13:53:58.007Z,29.12
2019-02-18T13:56:31.275Z,28.16
2019-02-18T13:59:04.645Z,27.18
2019-02-18T14:01:37.925Z,27.23
2019-02-18T14:04:12.857Z,25.21
2019-02-18T14:06:46.254Z,26.62
2019-02-18T14:09:19.643Z,26.38
2019-02-18T14:11:52.971Z,28.00
2019-02-18T14:14:26.257Z,27.39
2019-02-18T14:16:59.548Z,26.59
2019-02-18T14:19:33.140Z,26.31
2019-02-18T14:22:08.562Z,26.70
2019-02-18T14:24:41.837Z,27.71
2019-02-18T14:27:15.134Z,27.47
2019-02-18T14:29:48.446Z,27.10
2019-02-18T14:32:21.708Z,26.58
2019-02-18T14:34:56.635Z,26.17
2019-02-18T14:37:29.925Z,24.27
2019-02-18T14:40:04.610Z,25.86
2019-02-18T14:42:37.914Z,26.52
2019-02-18T14:45:11.306Z,24.73
2019-02-18T14:47:44.614Z,23.03
2019-02-18T14:50:18.569Z,26.00
2019-02-18T14:52:52.265Z,24.71
2019-02-18T14:55:27.276Z,26.96
2019-02-18T14:58:00.941Z,26.49
2019-02-18T15:00:34.467Z,25.27
2019-02-18T15:03:07.750Z,25.16
2019-02-18T15:05:41.044Z,26.35
2019-02-18T15:08:14.399Z,26.54
2019-02-18T15:10:47.706Z,25.79
2019-02-18T15:13:21.048Z,25.92
2019-02-18T15:15:54.464Z,25.11
2019-02-18T15:18:27.786Z,26.21
2019-02-18T15:21:01.093Z,25.45
2019-02-18T15:23:34.385Z,26.68
2019-02-18T15:26:08.336Z,25.82
2019-02-18T15:28:41.721Z,24.20
2019-02-18T15:31:14.981Z,24.94
2019-02-18T15:33:48.272Z,25.85
2019-02-18T15:36:21.539Z,26.35
2019-02-18T15:38:54.978Z,27.87
2019-02-18T15:41:28.299Z,30.65
2019-02-18T15:44:01.586Z,33.93
2019-02-18T15:46:34.877Z,34.96
2019-02-18T15:49:08.832Z,35.15
2019-02-18T15:51:42.189Z,35.22
2019-02-18T15:54:15.524Z,35.41
2019-02-18T15:56:48.812Z,37.03
2019-02-18T15:59:22.113Z,36.32
2019-02-18T16:01:55.374Z,35.84
2019-02-18T16:04:28.735Z,35.78
2019-02-18T16:07:02.017Z,36.72
2019-02-18T16:09:35.317Z,37.07
2019-02-18T16:12:08.662Z,37.07
2019-02-18T16:14:41.966Z,37.41
2019-02-18T16:17:15.242Z,37.89
2019-02-18T16:19:48.567Z,38.24
2019-02-18T16:22:22.239Z,38.76
2019-02-18T16:24:55.544Z,41.12
2019-02-18T16:27:28.831Z,41.52
2019-02-18T16:30:02.897Z,43.21
2019-02-18T16:32:36.331Z,44.73
2019-02-18T16:35:10.376Z,45.63
2019-02-18T16:37:44.115Z,45.37
2019-02-18T16:40:18.284Z,46.48
2019-02-18T16:42:59.100Z,47.36
2019-02-18T16:45:26.664Z,48.44
2019-02-18T16:47:59.950Z,49.73
2019-02-18T16:50:33.263Z,48.63
2019-02-18T16:53:06.542Z,46.39
2019-02-18T16:55:40.136Z,45.62
2019-02-18T16:58:13.438Z,46.51
2019-02-18T17:00:47.100Z,48.94
2019-02-18T17:03:20.375Z,50.70
2019-02-18T17:05:53.683Z,50.75
2019-02-18T17:08:26.955Z,50.44
2019-02-18T17:11:00.259Z,51.84
2019-02-18T17:13:34.528Z,52.92
2019-02-18T17:16:07.839Z,52.78
2019-02-18T17:18:41.304Z,51.77
2019-02-18T17:21:14.686Z,51.98
2019-02-18T17:23:47.976Z,51.67
2019-02-18T17:26:21.332Z,51.19
2019-02-18T17:28:54.626Z,51.33
2019-02-18T17:31:27.936Z,52.57
2019-02-18T17:34:01.222Z,53.84
2019-02-18T17:36:34.579Z,54.82
2019-02-18T17:39:08.331Z,55.70
2019-02-18T17:41:41.796Z,56.30
2019-02-18T17:44:20.175Z,57.42
2019-02-18T17:46:50.131Z,58.12
2019-02-18T17:49:23.395Z,58.39
2019-02-18T17:51:57.200Z,58.01
2019-02-18T17:54:30.493Z,56.76
2019-02-18T17:57:03.823Z,57.26
2019-02-18T17:59:37.778Z,58.65
2019-02-18T18:02:11.159Z,59.51
2019-02-18T18:04:45.609Z,59.53
2019-02-18T18:07:18.914Z,56.81
2019-02-18T18:09:52.193Z,56.61
2019-02-18T18:12:25.634Z,56.76
2019-02-18T18:14:59.276Z,57.56
2019-02-18T18:17:32.662Z,58.01
2019-02-18T18:20:09.603Z,58.79
2019-02-18T18:22:42.904Z,59.83
2019-02-18T18:25:16.726Z,60.58
2019-02-18T18:27:50.048Z,60.94
2019-02-18T18:30:23.318Z,61.20
2019-02-18T18:32:56.634Z,61.39
2019-02-18T18:35:29.918Z,61.88
2019-02-18T18:38:03.201Z,61.68
2019-02-18T18:40:36.825Z,62.09
2019-02-18T18:43:10.116Z,62.25
2019-02-18T18:45:43.416Z,62.28
2019-02-18T18:48:16.903Z,62.35
2019-02-18T18:50:50.218Z,62.70
2019-02-18T18:53:23.514Z,62.68
2019-02-18T18:55:56.826Z,63.26
2019-02-18T18:58:30.394Z,63.77
2019-02-18T19:01:03.879Z,64.81
2019-02-18T19:03:37.731Z,65.17
2019-02-18T19:06:11.069Z,64.87
2019-02-18T19:08:44.339Z,64.93
2019-02-18T19:11:17.707Z,64.99
2019-02-18T19:13:51.008Z,65.08
2019-02-18T19:16:24.363Z,65.06
2019-02-18T19:18:57.643Z,65.60
2019-02-18T19:21:32.131Z,64.97
2019-02-18T19:24:05.407Z,64.08
2019-02-18T19:26:38.720Z,64.69
2019-02-18T19:29:12.092Z,65.58
2019-02-18T19:31:45.803Z,63.41
2019-02-18T19:34:19.166Z,63.33
2019-02-18T19:36:52.537Z,64.13
2019-02-18T19:39:27.359Z,65.10
2019-02-18T19:42:01.032Z,65.93
2019-02-18T19:44:34.317Z,65.88
2019-02-18T19:47:07.627Z,65.59
2019-02-18T19:49:40.917Z,65.40
2019-02-18T19:52:14.232Z,65.78
2019-02-18T19:54:47.694Z,66.50
2019-02-18T19:57:20.994Z,66.99
2019-02-18T19:59:54.353Z,67.79
2019-02-18T20:02:27.628Z,68.46
2019-02-18T20:05:00.956Z,69.01
2019-02-18T20:07:34.344Z,69.19
2019-02-18T20:10:10.158Z,69.55
2019-02-18T20:12:43.481Z,69.38
2019-02-18T20:15:17.041Z,70.26
2019-02-18T20:17:50.367Z,71.11
2019-02-18T20:20:23.636Z,70.68
2019-02-18T20:22:56.973Z,69.91
2019-02-18T20:25:30.267Z,69.61
2019-02-18T20:28:03.586Z,70.56
2019-02-18T20:30:36.863Z,70.47
2019-02-18T20:33:10.185Z,71.00
2019-02-18T20:35:43.465Z,71.43
2019-02-18T20:38:16.797Z,70.52
2019-02-18T20:40:50.106Z,70.56
2019-02-18T20:43:23.420Z,71.48
2019-02-18T20:45:56.716Z,72.27
2019-02-18T20:48:30.289Z,71.82
2019-02-18T20:51:03.574Z,71.90
2019-02-18T20:53:36.986Z,72.49
2019-02-18T20:56:10.356Z,73.04
2019-02-18T20:58:43.672Z,73.17
2019-02-18T21:01:16.990Z,73.54
2019-02-18T21:03:50.322Z,73.78
2019-02-18T21:06:24.498Z,74.29
2019-02-18T21:08:57.834Z,73.35
2019-02-18T21:11:31.099Z,73.16
2019-02-18T21:14:04.888Z,73.31
2019-02-18T21:16:38.193Z,73.99
2019-02-18T21:19:11.497Z,73.94
2019-02-18T21:21:45.191Z,73.86
2019-02-18T21:24:18.497Z,73.88
2019-02-18T21:26:51.819Z,73.99
2019-02-18T21:29:25.102Z,73.55
2019-02-18T21:31:58.412Z,72.80
2019-02-18T21:34:31.709Z,71.53
2019-02-18T21:37:05.059Z,71.57
2019-02-18T21:39:38.399Z,72.40
2019-02-18T21:42:11.732Z,73.55
2019-02-18T21:44:45.239Z,74.06
2019-02-18T21:47:18.532Z,75.29
2019-02-18T21:49:51.847Z,75.21
2019-02-18T21:52:25.142Z,74.96
2019-02-18T21:54:58.790Z,75.35
2019-02-18T21:57:32.110Z,76.40
2019-02-18T22:00:10.205Z,76.86
2019-02-18T22:02:43.522Z,76.58
2019-02-18T22:05:16.884Z,76.66
2019-02-18T22:07:50.203Z,76.67
2019-02-18T22:10:23.482Z,77.26
2019-02-18T22:12:56.784Z,77.95
2019-02-18T22:15:31.727Z,76.76
2019-02-18T22:18:05.030Z,76.55
2019-02-18T22:20:38.557Z,76.82
2019-02-18T22:23:11.871Z,75.04
2019-02-18T22:25:45.145Z,75.74
2019-02-18T22:28:19.031Z,76.07
2019-02-18T22:30:52.319Z,76.23
2019-02-18T22:33:25.628Z,75.37
2019-02-18T22:35:58.911Z,74.36
2019-02-18T22:38:32.219Z,75.66
2019-02-18T22:41:05.866Z,74.96
2019-02-18T22:43:39.188Z,75.69
2019-02-18T22:46:12.449Z,75.84
2019-02-18T22:48:45.746Z,75.53
2019-02-18T22:51:19.028Z,75.84
2019-02-18T22:53:52.329Z,74.27
2019-02-18T22:56:25.621Z,72.57
2019-02-18T22:58:59.079Z,70.39
2019-02-18T23:01:32.427Z,72.27
2019-02-18T23:04:05.790Z,71.86
2019-02-18T23:06:39.090Z,70.98
2019-02-18T23:09:14.317Z,70.88
2019-02-18T23:11:48.881Z,71.10
2019-02-18T23:14:22.178Z,72.18
2019-02-18T23:16:55.467Z,73.74
2019-02-18T23:19:28.760Z,73.93
2019-02-18T23:22:02.055Z,74.77
2019-02-18T23:24:35.380Z,74.00
2019-02-18T23:27:08.644Z,72.99
2019-02-18T23:29:41.957Z,72.83
2019-02-18T23:32:15.230Z,72.57
2019-02-18T23:34:48.524Z,73.73
2019-02-18T23:37:23.494Z,74.00
2019-02-18T23:39:56.805Z,74.00
2019-02-18T23:42:30.085Z,74.65
2019-02-18T23:45:03.547Z,74.84
2019-02-18T23:47:36.802Z,75.06
2019-02-18T23:50:10.099Z,75.76
2019-02-18T23:52:43.375Z,76.51
2019-02-18T23:55:16.705Z,77.21
2019-02-18T23:57:49.973Z,77.42
